Time;durP1;ratioP1;P1;durP2;ratioP2;P2;SDS_P1;SDS_P2;PMS_P1;PMS_P2;Temp;Humidity;BMP_temperature;BMP_pressure;BME280_temperature;BME280_humidity;BME280_pressure;Samples;Min_cycle;Max_cycle;Signal;HPM_P1;HPM_P2
2022/09/14 00:02:19;;;;;;;8.15;2.00;;;19.90;99.90;;;-147.18;100.00;67318.16;5033211;28;20049;-85
2022/09/14 00:05:45;;;;;;;8.77;1.80;;;19.90;99.90;;;-147.18;100.00;67318.16;5032476;28;20076;-85
2022/09/14 00:09:14;;;;;;;6.60;1.63;;;19.90;99.90;;;-147.18;100.00;67318.16;5022254;28;20075;-85
2022/09/14 00:12:40;;;;;;;6.72;1.45;;;19.80;99.90;;;-147.18;100.00;67318.16;5029732;28;20402;-85
2022/09/14 00:16:08;;;;;;;8.38;1.73;;;19.80;99.90;;;-147.18;100.00;67318.16;5023429;28;20049;-85
2022/09/14 00:19:34;;;;;;;8.68;1.98;;;19.80;99.90;;;-147.18;100.00;67318.16;5018671;28;20064;-85
2022/09/14 00:22:59;;;;;;;7.68;2.15;;;19.80;99.90;;;-147.18;100.00;67318.16;5158524;23;20057;-84
2022/09/14 00:26:27;;;;;;;8.98;1.83;;;19.80;99.90;;;-147.18;100.00;67318.16;5069103;28;20064;-84
2022/09/14 00:29:55;;;;;;;9.80;1.88;;;19.90;99.90;;;-147.18;100.00;67318.16;5064391;28;20413;-84
2022/09/14 00:33:21;;;;;;;6.68;1.45;;;19.90;99.90;;;-147.18;100.00;67318.16;5032746;28;20076;-84
2022/09/14 00:36:48;;;;;;;6.60;1.85;;;19.90;99.90;;;-147.18;100.00;67318.16;5051824;28;20059;-84
2022/09/14 00:40:15;;;;;;;6.45;1.90;;;19.80;99.90;;;-147.18;100.00;67318.16;5048089;28;20135;-84
2022/09/14 00:43:52;;;;;;;7.47;1.95;;;19.80;99.90;;;-147.18;100.00;67318.16;5050346;28;20045;-84
2022/09/14 00:47:18;;;;;;;7.90;1.63;;;19.80;99.90;;;-147.18;100.00;67318.16;5051528;28;20044;-84
2022/09/14 00:50:44;;;;;;;6.68;1.40;;;19.80;99.90;;;-147.18;100.00;67318.16;5052237;28;20063;-84
2022/09/14 00:54:10;;;;;;;10.80;1.70;;;19.80;99.90;;;-147.18;100.00;67318.16;5052036;28;20052;-84
2022/09/14 00:57:37;;;;;;;4.60;1.70;;;19.80;99.90;;;-147.18;100.00;67318.16;5043490;28;20041;-84
2022/09/14 01:01:06;;;;;;;10.57;2.05;;;19.80;99.90;;;-147.18;100.00;67318.16;5050412;28;20048;-85
2022/09/14 01:04:32;;;;;;;7.25;1.67;;;19.80;99.90;;;-147.18;100.00;67318.16;5051795;28;20049;-84
2022/09/14 01:08:10;;;;;;;9.15;2.15;;;19.70;99.90;;;-147.18;100.00;67318.16;5052029;28;20040;-84
2022/09/14 01:11:54;;;;;;;8.20;1.67;;;19.80;99.90;;;-147.18;100.00;67318.16;5037287;28;20098;-84
2022/09/14 01:15:30;;;;;;;7.45;1.77;;;19.80;99.90;;;-147.18;100.00;67318.16;5044239;28;20034;-84
2022/09/14 01:19:04;;;;;;;7.05;1.83;;;19.80;99.90;;;-147.18;100.00;67318.16;5039713;28;20120;-84
2022/09/14 01:22:34;;;;;;;7.47;1.60;;;19.80;99.90;;;-147.18;100.00;67318.16;5049643;28;20037;-84
2022/09/14 01:26:19;;;;;;;13.20;2.25;;;19.70;99.90;;;-147.18;100.00;67318.16;5037801;28;20033;-85
2022/09/14 01:30:11;;;;;;;11.27;1.83;;;19.70;99.90;;;-147.18;100.00;67318.16;5046794;28;20041;-84
2022/09/14 01:33:45;;;;;;;6.93;2.05;;;19.70;99.90;;;-147.18;100.00;67318.16;5048002;28;20060;-84
2022/09/14 01:37:16;;;;;;;11.50;1.90;;;19.70;99.90;;;-147.18;100.00;67318.16;5046920;28;20038;-84
2022/09/14 01:40:46;;;;;;;10.38;1.85;;;19.70;99.90;;;-147.18;100.00;67318.16;5041778;28;20047;-84
2022/09/14 01:44:21;;;;;;;12.90;2.05;;;19.70;99.90;;;-147.18;100.00;67318.16;5045863;28;20524;-84
2022/09/14 01:47:53;;;;;;;10.70;2.10;;;19.60;99.90;;;-147.18;100.00;67318.16;5050703;28;20055;-84
2022/09/14 01:51:26;;;;;;;8.63;2.13;;;19.60;99.90;;;-147.18;100.00;67318.16;5043398;28;20037;-84
2022/09/14 01:54:58;;;;;;;12.20;2.17;;;19.60;99.90;;;-147.18;100.00;67318.16;5049556;28;20048;-84
2022/09/14 01:58:28;;;;;;;9.57;1.90;;;19.50;99.90;;;-147.18;100.00;67318.16;5050977;28;20413;-84
2022/09/14 02:01:59;;;;;;;5.20;1.70;;;19.50;99.90;;;-147.18;100.00;67318.16;5050783;28;20048;-85
2022/09/14 02:05:32;;;;;;;9.48;2.83;;;19.40;99.90;;;-147.18;100.00;67318.16;5049975;28;20041;-85
2022/09/14 02:08:59;;;;;;;12.35;2.60;;;19.40;99.90;;;-147.18;100.00;67318.16;5038945;28;20057;-84
2022/09/14 02:12:24;;;;;;;11.43;1.80;;;19.40;99.90;;;-147.18;100.00;67318.16;5050511;28;20037;-84
2022/09/14 02:15:51;;;;;;;7.45;1.98;;;19.40;99.90;;;-147.18;100.00;67318.16;5050027;28;20045;-84
2022/09/14 02:19:19;;;;;;;9.27;1.88;;;19.30;99.90;;;-147.18;100.00;67318.16;5049069;28;20402;-84
2022/09/14 02:22:44;;;;;;;10.02;1.85;;;19.30;99.90;;;-147.18;100.00;67318.16;5049235;28;20400;-84
2022/09/14 02:26:12;;;;;;;7.95;1.70;;;19.30;99.90;;;-147.18;100.00;67318.16;5044578;28;20040;-84
2022/09/14 02:29:38;;;;;;;9.25;1.92;;;19.30;99.90;;;-147.18;100.00;67318.16;5050099;28;20048;-84
2022/09/14 02:33:19;;;;;;;11.75;2.00;;;19.20;99.90;;;-147.18;100.00;67318.16;5047873;28;20037;-84
2022/09/14 02:36:54;;;;;;;8.45;1.60;;;19.20;99.90;;;-147.18;100.00;67318.16;5035079;28;20055;-85
2022/09/14 02:40:30;;;;;;;10.57;1.77;;;19.20;99.90;;;-147.18;100.00;67318.16;5046103;28;20048;-84
2022/09/14 02:44:08;;;;;;;8.45;1.77;;;19.20;99.90;;;-147.18;100.00;67318.16;5035043;28;20398;-84
2022/09/14 02:47:48;;;;;;;13.13;1.90;;;19.20;99.90;;;-147.18;100.00;67318.16;5045164;28;20041;-84
2022/09/14 02:51:31;;;;;;;7.75;1.67;;;19.20;99.90;;;-147.18;100.00;67318.16;5041592;28;20501;-84
2022/09/14 02:55:02;;;;;;;11.13;2.20;;;19.20;99.90;;;-147.18;100.00;67318.16;5047147;28;20458;-84
2022/09/14 02:58:33;;;;;;;9.50;2.15;;;19.10;99.90;;;-147.18;100.00;67318.16;5047298;28;20041;-84
2022/09/14 03:02:00;;;;;;;11.82;2.53;;;19.10;99.90;;;-147.18;100.00;67318.16;5040452;28;20049;-84
2022/09/14 03:05:26;;;;;;;7.00;1.88;;;19.10;99.90;;;-147.18;100.00;67318.16;5047592;28;20437;-84
2022/09/14 03:08:53;;;;;;;9.35;2.33;;;19.10;99.90;;;-147.18;100.00;67318.16;5035406;28;20163;-84
2022/09/14 03:12:18;;;;;;;9.65;2.10;;;19.10;99.90;;;-147.18;100.00;67318.16;5048357;28;20029;-84
2022/09/14 03:15:44;;;;;;;12.93;2.20;;;19.00;99.90;;;-147.18;100.00;67318.16;5048588;28;20504;-84
2022/09/14 03:19:11;;;;;;;8.50;1.90;;;19.00;99.90;;;-147.18;100.00;67318.16;5049744;28;20049;-84
2022/09/14 03:22:37;;;;;;;12.52;2.42;;;19.00;99.90;;;-147.18;100.00;67318.16;5049350;28;20041;-84
2022/09/14 03:26:07;;;;;;;12.32;2.53;;;19.00;99.90;;;-147.18;100.00;67318.16;5043783;28;20111;-84
2022/09/14 03:29:32;;;;;;;10.30;2.05;;;19.00;99.90;;;-147.18;100.00;67318.16;5043871;28;20049;-84
2022/09/14 03:32:58;;;;;;;7.78;2.20;;;18.90;99.90;;;-147.18;100.00;67318.16;5047902;28;20060;-84
2022/09/14 03:36:27;;;;;;;14.10;2.53;;;19.10;99.90;;;-147.18;100.00;67318.16;5051456;28;20049;-84
2022/09/14 03:39:53;;;;;;;11.40;2.03;;;18.90;99.90;;;-147.18;100.00;67318.16;5053313;28;20033;-84
2022/09/14 03:43:20;;;;;;;10.25;1.92;;;18.90;99.90;;;-147.18;100.00;67318.16;5041909;28;20138;-84
2022/09/14 03:46:46;;;;;;;8.52;2.28;;;18.90;99.90;;;-147.18;100.00;67318.16;5045049;28;20041;-84
2022/09/14 03:50:15;;;;;;;10.55;2.10;;;18.90;99.90;;;-147.18;100.00;67318.16;5053161;28;20039;-84
2022/09/14 03:53:41;;;;;;;8.90;2.53;;;18.90;99.90;;;-147.18;100.00;67318.16;5053431;28;20048;-84
2022/09/14 03:57:09;;;;;;;10.00;2.60;;;19.00;99.90;;;-147.18;100.00;67318.16;5052601;28;20102;-84
2022/09/14 04:00:36;;;;;;;8.35;2.10;;;18.90;99.90;;;-147.18;100.00;67318.16;5048093;28;20037;-84
2022/09/14 04:04:02;;;;;;;7.82;2.08;;;18.80;99.90;;;-147.18;100.00;67318.16;5033528;28;20053;-84
2022/09/14 04:07:27;;;;;;;7.38;1.90;;;18.80;99.90;;;-147.18;100.00;67318.16;5052101;28;20051;-84
2022/09/14 04:10:53;;;;;;;7.88;2.30;;;18.80;99.90;;;-147.18;100.00;67318.16;5051671;28;20558;-84
2022/09/14 04:14:19;;;;;;;10.85;2.40;;;18.80;99.90;;;-147.18;100.00;67318.16;5051876;28;20447;-83
2022/09/14 04:17:46;;;;;;;12.07;2.83;;;18.80;99.90;;;-147.18;100.00;67318.16;5052578;28;20045;-84
2022/09/14 04:21:13;;;;;;;12.00;2.63;;;18.70;99.90;;;-147.18;100.00;67318.16;5052689;28;20060;-84
2022/09/14 04:24:39;;;;;;;12.65;2.13;;;18.70;99.90;;;-147.18;100.00;67318.16;5045622;28;20041;-84
2022/09/14 04:28:05;;;;;;;10.57;2.67;;;18.70;99.90;;;-147.18;100.00;67318.16;5041231;28;20494;-84
2022/09/14 04:31:31;;;;;;;9.63;2.70;;;18.70;99.90;;;-147.18;100.00;67318.16;5043645;28;20095;-84
2022/09/14 04:34:59;;;;;;;15.98;2.33;;;18.70;99.90;;;-147.18;100.00;67318.16;5045443;28;20053;-80
2022/09/14 04:38:25;;;;;;;12.73;3.00;;;18.60;99.90;;;-147.18;100.00;67318.16;5040856;28;20037;-82
2022/09/14 04:41:51;;;;;;;13.82;3.10;;;18.60;99.90;;;-147.18;100.00;67318.16;5048423;28;20034;-81
2022/09/14 04:45:16;;;;;;;11.10;2.75;;;18.60;99.90;;;-147.18;100.00;67318.16;5053457;28;20041;-81
2022/09/14 04:48:42;;;;;;;8.30;2.92;;;18.60;99.90;;;-147.18;100.00;67318.16;5039275;28;20045;-82
2022/09/14 04:52:10;;;;;;;10.82;2.58;;;18.60;99.90;;;-147.18;100.00;67318.16;5051844;28;20493;-82
2022/09/14 04:55:36;;;;;;;11.88;2.72;;;18.60;99.90;;;-147.18;100.00;67318.16;5046123;28;20040;-81
2022/09/14 04:59:04;;;;;;;10.48;2.90;;;18.60;99.90;;;-147.18;100.00;67318.16;5048791;28;20045;-82
2022/09/14 05:02:33;;;;;;;7.30;2.55;;;18.60;99.90;;;-147.18;100.00;67318.16;5038577;28;20836;-82
2022/09/14 05:06:01;;;;;;;11.77;2.70;;;18.60;99.90;;;-147.18;100.00;67318.16;5038282;28;20041;-81
2022/09/14 05:09:28;;;;;;;13.95;2.95;;;18.60;99.90;;;-147.18;100.00;67318.16;5048838;28;20126;-81
2022/09/14 05:12:53;;;;;;;6.80;2.50;;;18.60;99.90;;;-147.18;100.00;67318.16;5050410;28;20513;-80
2022/09/14 05:16:20;;;;;;;9.43;2.55;;;18.60;99.90;;;-147.18;100.00;67318.16;5049311;28;20041;-82
2022/09/14 05:19:46;;;;;;;14.85;2.58;;;18.50;99.90;;;-147.18;100.00;67318.16;5051769;28;20051;-82
2022/09/14 05:23:12;;;;;;;10.77;3.03;;;18.50;99.90;;;-147.18;100.00;67318.16;5050579;28;20134;-80
2022/09/14 05:26:39;;;;;;;11.55;2.70;;;18.50;99.90;;;-147.18;100.00;67318.16;5048234;28;20055;-84
2022/09/14 05:30:05;;;;;;;10.13;3.00;;;18.50;99.90;;;-147.18;100.00;67318.16;5048825;28;20469;-82
2022/09/14 05:33:30;;;;;;;9.45;3.20;;;18.50;99.90;;;-147.18;100.00;67318.16;5049983;28;20064;-82
2022/09/14 05:36:59;;;;;;;12.35;3.10;;;18.50;99.90;;;-147.18;100.00;67318.16;5040907;28;20052;-82
2022/09/14 05:40:25;;;;;;;10.98;3.15;;;18.50;99.90;;;-147.18;100.00;67318.16;5030027;28;20573;-82
2022/09/14 05:43:52;;;;;;;11.23;3.20;;;18.40;99.90;;;-147.18;100.00;67318.16;5031493;28;20046;-82
2022/09/14 05:47:17;;;;;;;12.32;3.17;;;18.40;99.90;;;-147.18;100.00;67318.16;5038907;28;20059;-82
2022/09/14 05:50:43;;;;;;;10.20;3.75;;;18.40;99.90;;;-147.18;100.00;67318.16;5037670;28;20489;-82
2022/09/14 05:54:10;;;;;;;11.13;3.47;;;18.40;99.90;;;-147.18;100.00;67318.16;5031248;28;20052;-82
2022/09/14 05:57:36;;;;;;;12.55;3.22;;;18.40;99.90;;;-147.18;100.00;67318.16;5034021;28;20041;-82
2022/09/14 06:01:08;;;;;;;13.98;3.85;;;18.40;99.90;;;-147.18;100.00;67318.16;5048716;28;20055;-82
2022/09/14 06:04:34;;;;;;;14.25;3.67;;;18.40;99.90;;;-147.18;100.00;67318.16;5034363;28;20053;-82
2022/09/14 06:08:00;;;;;;;8.73;2.95;;;18.30;99.90;;;-147.18;100.00;67318.16;5042708;28;20044;-82
2022/09/14 06:11:27;;;;;;;9.48;3.10;;;18.40;99.90;;;-147.18;100.00;67318.16;5050744;28;20048;-82
2022/09/14 06:14:53;;;;;;;9.75;2.95;;;18.30;99.90;;;-147.18;100.00;67318.16;5050803;28;20498;-82
2022/09/14 06:18:19;;;;;;;11.35;3.53;;;18.20;99.90;;;-147.18;100.00;67318.16;5050525;28;20068;-82
2022/09/14 06:21:49;;;;;;;10.98;3.30;;;18.20;99.90;;;-147.18;100.00;67318.16;5064303;23;20049;-85
2022/09/14 06:25:14;;;;;;;11.20;3.13;;;18.20;99.90;;;-147.18;100.00;67318.16;5024226;28;20041;-85
2022/09/14 06:28:40;;;;;;;13.00;3.22;;;18.20;99.90;;;-147.18;100.00;67318.16;5030729;28;20041;-85
2022/09/14 06:32:06;;;;;;;11.00;3.05;;;18.20;99.90;;;-147.18;100.00;67318.16;5030840;28;20056;-85
2022/09/14 06:35:33;;;;;;;11.88;3.28;;;18.20;99.90;;;-147.18;100.00;67318.16;5029872;28;20050;-85
2022/09/14 06:38:59;;;;;;;8.90;3.05;;;18.10;99.90;;;-147.18;100.00;67318.16;5025295;28;20109;-85
2022/09/14 06:42:28;;;;;;;13.38;3.22;;;18.20;99.90;;;-147.18;100.00;67318.16;5022048;28;20034;-85
2022/09/14 06:45:56;;;;;;;21.25;3.80;;;18.10;99.90;;;-147.18;100.00;67318.16;5008702;28;20133;-85
2022/09/14 06:49:22;;;;;;;11.07;3.40;;;18.10;99.90;;;-147.18;100.00;67318.16;5030315;28;20247;-85
2022/09/14 06:52:49;;;;;;;11.57;3.40;;;18.10;99.90;;;-147.18;100.00;67318.16;5019748;28;20045;-85
2022/09/14 06:56:15;;;;;;;11.23;3.33;;;18.10;99.90;;;-147.18;100.00;67318.16;5027801;28;20043;-85
2022/09/14 06:59:41;;;;;;;9.80;3.88;;;18.10;99.90;;;-147.18;100.00;67318.16;5024611;28;20045;-85
2022/09/14 07:03:08;;;;;;;8.65;3.33;;;18.20;99.90;;;-147.18;100.00;67318.16;5003491;28;20049;-85
2022/09/14 07:06:38;;;;;;;8.38;3.50;;;18.10;99.90;;;-147.18;100.00;67318.16;5017265;28;20053;-85
2022/09/14 07:10:05;;;;;;;12.35;3.60;;;18.10;99.90;;;-147.18;100.00;67318.16;5009908;28;20061;-86
2022/09/14 07:13:31;;;;;;;10.70;3.42;;;18.10;99.90;;;-147.18;100.00;67318.16;5020856;28;20490;-85
2022/09/14 07:16:57;;;;;;;12.48;3.97;;;18.00;99.90;;;-147.18;100.00;67318.16;5021211;28;20041;-85
2022/09/14 07:20:22;;;;;;;12.18;3.95;;;18.00;99.90;;;-147.18;100.00;67318.16;5018637;28;20560;-85
2022/09/14 07:23:49;;;;;;;13.43;3.80;;;18.00;99.90;;;-147.18;100.00;67318.16;5026423;28;20046;-84
2022/09/14 07:27:18;;;;;;;13.52;3.78;;;18.00;99.90;;;-147.18;100.00;67318.16;5022935;28;20466;-85
2022/09/14 07:30:44;;;;;;;15.48;3.53;;;18.00;99.90;;;-147.18;100.00;67318.16;5024472;28;20121;-85
2022/09/14 07:34:10;;;;;;;9.15;3.40;;;18.00;99.90;;;-147.18;100.00;67318.16;5028112;28;21842;-85
2022/09/14 07:37:37;;;;;;;11.30;3.67;;;18.00;99.90;;;-147.18;100.00;67318.16;5016865;28;20041;-85
2022/09/14 07:41:03;;;;;;;13.30;3.80;;;18.00;99.90;;;-147.18;100.00;67318.16;5025773;28;20056;-85
2022/09/14 07:44:30;;;;;;;11.80;3.53;;;17.90;99.90;;;-147.18;100.00;67318.16;5022054;28;20037;-84
2022/09/14 07:47:56;;;;;;;8.77;3.72;;;17.90;99.90;;;-147.18;100.00;67318.16;5026685;28;20037;-85
2022/09/14 07:51:22;;;;;;;21.20;4.95;;;17.90;99.90;;;-147.18;100.00;67318.16;5018904;28;20041;-84
2022/09/14 07:54:48;;;;;;;11.95;3.83;;;17.90;99.90;;;-147.18;100.00;67318.16;5010108;28;20050;-86
2022/09/14 07:58:14;;;;;;;10.15;4.10;;;17.80;99.90;;;-147.18;100.00;67318.16;5010124;28;20176;-86
2022/09/14 08:01:41;;;;;;;9.88;4.60;;;17.90;99.90;;;-147.18;100.00;67318.16;4997435;28;20041;-86
2022/09/14 08:05:07;;;;;;;11.63;4.38;;;17.80;99.90;;;-147.18;100.00;67318.16;5024892;28;20049;-92
2022/09/14 08:08:34;;;;;;;11.80;4.63;;;17.80;99.90;;;-147.18;100.00;67318.16;5021708;28;20422;-86
2022/09/14 08:12:05;;;;;;;11.23;4.10;;;17.80;99.90;;;-147.18;100.00;67318.16;5026286;28;20050;-86
2022/09/14 08:15:32;;;;;;;11.38;4.05;;;17.80;99.90;;;-147.18;100.00;67318.16;5009243;28;20140;-87
2022/09/14 08:19:00;;;;;;;12.25;4.05;;;17.80;99.90;;;-147.18;100.00;67318.16;5020475;28;20065;-86
2022/09/14 08:22:27;;;;;;;8.60;4.10;;;17.80;99.90;;;-147.18;100.00;67318.16;5013509;28;20057;-86
2022/09/14 08:25:53;;;;;;;12.45;4.28;;;17.80;99.90;;;-147.18;100.00;67318.16;5012991;28;20057;-86
2022/09/14 08:29:19;;;;;;;8.75;3.47;;;17.80;99.90;;;-147.18;100.00;67318.16;5013616;28;20049;-86
2022/09/14 08:32:45;;;;;;;14.07;3.78;;;17.80;99.90;;;-147.18;100.00;67318.16;5024736;28;20096;-86
2022/09/14 08:36:14;;;;;;;8.57;3.58;;;17.80;99.90;;;-147.18;100.00;67318.16;5015172;28;20095;-86
2022/09/14 08:39:39;;;;;;;9.98;3.65;;;17.80;99.90;;;-147.18;100.00;67318.16;5013493;28;20050;-86
2022/09/14 08:43:14;;;;;;;9.15;3.13;;;17.80;99.90;;;-147.18;100.00;67318.16;5012993;28;20053;-86
2022/09/14 08:46:43;;;;;;;9.55;3.58;;;17.80;99.90;;;-147.18;100.00;67318.16;5012324;28;20046;-86
2022/09/14 08:50:16;;;;;;;9.23;3.10;;;17.70;99.90;;;-147.18;100.00;67318.16;5022673;28;20104;-86
2022/09/14 08:53:44;;;;;;;8.60;3.25;;;17.70;99.90;;;-147.18;100.00;67318.16;5013159;28;20136;-86
2022/09/14 08:57:16;;;;;;;12.88;3.60;;;17.70;99.90;;;-147.18;100.00;67318.16;5012198;28;20057;-86
2022/09/14 09:00:51;;;;;;;11.27;3.92;;;17.80;99.90;;;-147.18;100.00;67318.16;5012919;28;20085;-86
2022/09/14 09:04:47;;;;;;;8.20;3.22;;;17.70;99.90;;;-147.18;100.00;67318.16;5018239;28;20038;-85
2022/09/14 09:08:31;;;;;;;7.90;3.50;;;17.70;99.90;;;-147.18;100.00;67318.16;5031888;28;20456;-86
2022/09/14 09:11:59;;;;;;;9.35;3.58;;;17.70;99.90;;;-147.18;100.00;67318.16;5032236;28;20136;-86
2022/09/14 09:15:32;;;;;;;12.55;3.75;;;17.70;99.90;;;-147.18;100.00;67318.16;5031348;28;20440;-86
2022/09/14 09:19:03;;;;;;;11.32;4.10;;;17.80;99.90;;;-147.18;100.00;67318.16;5019090;28;20054;-85
2022/09/14 09:22:39;;;;;;;9.43;3.17;;;17.80;99.90;;;-147.18;100.00;67318.16;5017056;28;20049;-85
2022/09/14 09:26:15;;;;;;;13.68;3.85;;;17.80;99.90;;;-147.18;100.00;67318.16;5011610;28;20096;-86
2022/09/14 09:29:44;;;;;;;13.15;4.00;;;17.80;99.90;;;-147.18;100.00;67318.16;5012320;28;20050;-86
2022/09/14 09:33:15;;;;;;;8.80;3.85;;;17.80;99.90;;;-147.18;100.00;67318.16;5011657;28;20054;-86
2022/09/14 09:36:59;;;;;;;10.38;4.15;;;17.80;99.90;;;-147.18;100.00;67318.16;5002745;28;20445;-86
2022/09/14 09:40:33;;;;;;;14.18;4.10;;;17.80;99.90;;;-147.18;100.00;67318.16;4994368;28;20042;-86
2022/09/14 09:44:09;;;;;;;13.38;4.53;;;17.80;99.90;;;-147.18;100.00;67318.16;5011825;28;20517;-86
2022/09/14 09:47:37;;;;;;;10.43;3.95;;;17.70;99.90;;;-147.18;100.00;67318.16;5017775;28;20125;-86
2022/09/14 09:51:09;;;;;;;11.85;3.92;;;17.80;99.90;;;-147.18;100.00;67318.16;5011642;28;20140;-86
2022/09/14 09:54:40;;;;;;;8.82;3.85;;;17.80;99.90;;;-147.18;100.00;67318.16;5011668;28;20054;-85
2022/09/14 09:58:21;;;;;;;10.88;4.57;;;17.80;99.90;;;-147.18;100.00;67318.16;5021085;28;20041;-85
2022/09/14 10:01:55;;;;;;;10.27;4.20;;;17.80;99.90;;;-147.18;100.00;67318.16;5011531;28;20042;-86
2022/09/14 10:05:27;;;;;;;9.07;4.47;;;17.80;99.90;;;-147.18;100.00;67318.16;5011010;28;20077;-86
2022/09/14 10:08:56;;;;;;;9.10;4.63;;;17.80;99.90;;;-147.18;100.00;67318.16;5011475;28;20038;-86
2022/09/14 10:12:31;;;;;;;10.50;4.45;;;17.80;99.90;;;-147.18;100.00;67318.16;5023023;28;20041;-86
2022/09/14 10:16:15;;;;;;;9.55;4.97;;;17.80;99.90;;;-147.18;100.00;67318.16;5029246;28;20045;-86
2022/09/14 10:19:47;;;;;;;8.18;3.92;;;17.80;99.90;;;-147.18;100.00;67318.16;5008025;28;20041;-86
2022/09/14 10:23:24;;;;;;;8.30;4.13;;;17.70;99.90;;;-147.18;100.00;67318.16;5030586;28;20047;-86
2022/09/14 10:26:53;;;;;;;6.88;3.83;;;17.70;99.90;;;-147.18;100.00;67318.16;5029077;28;20552;-86
2022/09/14 10:30:28;;;;;;;8.45;3.67;;;17.70;99.90;;;-147.18;100.00;67318.16;5010941;28;20042;-86
2022/09/14 10:33:56;;;;;;;8.90;3.90;;;17.70;99.90;;;-147.18;100.00;67318.16;5011317;28;20048;-86
2022/09/14 10:37:31;;;;;;;7.53;3.95;;;17.70;99.90;;;-147.18;100.00;67318.16;5010048;28;20046;-86
2022/09/14 10:41:24;;;;;;;7.47;4.30;;;17.70;99.90;;;-147.18;100.00;67318.16;5028343;28;20037;-86
2022/09/14 10:45:15;;;;;;;9.52;4.55;;;17.70;99.90;;;-147.18;100.00;67318.16;5026467;28;20493;-86
2022/09/14 10:49:12;;;;;;;8.87;4.23;;;17.70;99.90;;;-147.18;100.00;67318.16;5018801;28;20070;-85
2022/09/14 10:52:52;;;;;;;10.73;5.10;;;17.70;99.90;;;-147.18;100.00;67318.16;5010533;28;20456;-86
2022/09/14 10:56:26;;;;;;;9.57;4.78;;;17.80;99.90;;;-147.18;100.00;67318.16;5018037;28;20048;-86
2022/09/14 11:00:06;;;;;;;8.45;5.70;;;17.80;99.90;;;-147.18;100.00;67318.16;5010502;28;20502;-86
2022/09/14 11:03:53;;;;;;;7.88;5.82;;;17.80;99.90;;;-147.18;100.00;67318.16;5010374;28;20457;-86
2022/09/14 11:07:34;;;;;;;9.20;5.18;;;17.80;99.90;;;-147.18;100.00;67318.16;5009677;28;20499;-86
2022/09/14 11:11:24;;;;;;;11.33;5.60;;;17.80;99.90;;;-147.18;100.00;67318.16;5014168;28;20033;-86
2022/09/14 11:15:07;;;;;;;8.90;5.43;;;17.80;99.90;;;-147.18;100.00;67318.16;5010253;28;20297;-86
2022/09/14 11:19:00;;;;;;;7.85;4.13;;;17.80;99.90;;;-147.18;100.00;67318.16;5005779;28;20449;-86
2022/09/14 11:22:40;;;;;;;3.70;2.15;;;17.80;99.90;;;-147.18;100.00;67318.16;5029290;28;20045;-84
2022/09/14 11:26:12;;;;;;;4.72;1.70;;;17.80;99.90;;;-147.18;100.00;67318.16;5013287;28;20041;-86
2022/09/14 11:29:44;;;;;;;4.25;1.55;;;17.80;99.90;;;-147.18;100.00;67318.16;5024943;28;20492;-90
2022/09/14 11:33:16;;;;;;;4.85;1.60;;;17.60;99.90;;;-147.18;100.00;67318.16;5022760;28;20045;-82
2022/09/14 11:36:47;;;;;;;4.10;1.73;;;17.60;99.90;;;-147.18;100.00;67318.16;5026266;28;20049;-83
2022/09/14 11:40:21;;;;;;;4.43;1.60;;;17.60;99.90;;;-147.18;100.00;67318.16;5009944;28;20041;-83
2022/09/14 11:43:55;;;;;;;4.82;1.80;;;17.60;99.90;;;-147.18;100.00;67318.16;5017780;28;20045;-84
2022/09/14 11:47:26;;;;;;;4.30;1.90;;;17.60;99.90;;;-147.18;100.00;67318.16;5007762;28;20141;-84
2022/09/14 11:51:02;;;;;;;3.53;1.80;;;17.60;99.90;;;-147.18;100.00;67318.16;5003002;28;20090;-84
2022/09/14 11:54:28;;;;;;;5.22;1.77;;;17.60;99.90;;;-147.18;100.00;67318.16;5008821;28;20585;-83
2022/09/14 11:57:58;;;;;;;5.28;2.10;;;17.60;99.90;;;-147.18;100.00;67318.16;5029498;28;20117;-83
2022/09/14 12:01:44;;;;;;;7.00;1.60;;;17.60;99.90;;;-147.18;100.00;67318.16;5020856;28;20034;-83
2022/09/14 12:05:31;;;;;;;4.28;1.70;;;17.60;99.90;;;-147.18;100.00;67318.16;5025882;28;20030;-83
2022/09/14 12:09:30;;;;;;;4.97;2.03;;;17.60;99.90;;;-147.18;100.00;67318.16;5026461;28;20041;-84
2022/09/14 12:12:57;;;;;;;5.90;1.90;;;17.50;99.90;;;-147.18;100.00;67318.16;5020446;28;20513;-84
2022/09/14 12:16:33;;;;;;;7.85;1.60;;;17.60;99.90;;;-147.18;100.00;67318.16;5027074;28;20541;-84
2022/09/14 12:20:15;;;;;;;4.88;1.50;;;17.60;99.90;;;-147.18;100.00;67318.16;5013594;28;20070;-84
2022/09/14 12:23:50;;;;;;;;;;;17.50;99.90;;;-147.18;100.00;67318.16;5056493;23;20506;-83
2022/09/14 12:27:35;;;;;;;5.15;1.50;;;17.50;99.90;;;-147.18;100.00;67318.16;5047348;28;19931;-84
2022/09/14 12:31:07;;;;;;;4.93;1.70;;;17.50;99.90;;;-147.18;100.00;67318.16;5037069;28;20044;-84
2022/09/14 12:34:44;;;;;;;;;;;17.50;99.90;;;-147.18;100.00;67318.16;5020223;28;20592;-84
2022/09/14 12:38:39;;;;;;;5.63;1.83;;;17.50;99.90;;;-147.18;100.00;67318.16;5025617;28;19921;-83
2022/09/14 12:42:38;;;;;;;4.60;1.83;;;17.50;99.90;;;-147.18;100.00;67318.16;5028417;28;20045;-83
2022/09/14 12:46:40;;;;;;;6.25;2.00;;;17.50;99.90;;;-147.18;100.00;67318.16;5012147;28;20774;-84
2022/09/14 12:50:23;;;;;;;;;;;17.50;99.90;;;-147.18;100.00;67318.16;5030245;28;20615;-82
2022/09/14 12:54:24;;;;;;;6.15;1.85;;;17.50;99.90;;;-147.18;100.00;67318.16;5023542;28;19921;-82
2022/09/14 12:58:07;;;;;;;7.18;1.70;;;17.50;99.90;;;-147.18;100.00;67318.16;5017094;28;20034;-82
2022/09/14 13:01:51;;;;;;;5.45;1.90;;;17.50;99.90;;;-147.18;100.00;67318.16;5020396;28;20100;-82
2022/09/14 13:05:26;;;;;;;6.57;2.25;;;17.50;99.90;;;-147.18;100.00;67318.16;5027312;28;20040;-82
2022/09/14 13:08:54;;;;;;;3.53;1.50;;;17.50;99.90;;;-147.18;100.00;67318.16;5016938;28;20049;-91
2022/09/14 13:12:26;;;;;;;3.72;1.40;;;17.40;99.90;;;-147.18;100.00;67318.16;5027911;28;20037;-83
2022/09/14 13:15:55;;;;;;;4.55;1.38;;;17.40;99.90;;;-147.18;100.00;67318.16;5014445;28;20549;-79
2022/09/14 13:19:29;;;;;;;3.38;1.15;;;17.40;99.90;;;-147.18;100.00;67318.16;5021939;28;20038;-78
2022/09/14 13:22:58;;;;;;;5.88;1.55;;;17.40;99.90;;;-147.18;100.00;67318.16;5022862;28;20427;-79
2022/09/14 13:26:32;;;;;;;4.05;1.00;;;17.60;99.90;;;-147.18;100.00;67318.16;5020746;28;20401;-79
2022/09/14 13:30:00;;;;;;;3.17;1.10;;;17.40;99.90;;;-147.18;100.00;67318.16;5017052;28;20694;-79
2022/09/14 13:33:27;;;;;;;3.65;1.20;;;17.40;99.90;;;-147.18;100.00;67318.16;5025871;28;20061;-79
2022/09/14 13:36:55;;;;;;;4.15;1.45;;;17.50;99.90;;;-147.18;100.00;67318.16;5021714;28;20147;-79
2022/09/14 13:40:30;;;;;;;4.03;1.23;;;17.40;99.90;;;-147.18;100.00;67318.16;5024635;28;20041;-79
2022/09/14 13:43:57;;;;;;;4.45;1.55;;;17.40;99.90;;;-147.18;100.00;67318.16;5026128;28;20041;-79
2022/09/14 13:47:25;;;;;;;4.05;1.20;;;17.50;99.90;;;-147.18;100.00;67318.16;5020940;28;20120;-79
2022/09/14 13:50:52;;;;;;;4.60;1.33;;;17.50;99.90;;;-147.18;100.00;67318.16;5017937;28;20041;-83
2022/09/14 13:54:45;;;;;;;5.03;1.70;;;17.40;99.90;;;-147.18;100.00;67318.16;5026492;28;20509;-79
2022/09/14 13:58:14;;;;;;;3.75;1.60;;;17.40;99.90;;;-147.18;100.00;67318.16;5017014;28;20414;-79
2022/09/14 14:01:59;;;;;;;7.28;1.67;;;17.40;99.90;;;-147.18;100.00;67318.16;5015963;28;20037;-79
2022/09/14 14:05:32;;;;;;;5.22;1.70;;;17.40;99.90;;;-147.18;100.00;67318.16;5017875;28;20040;-79
2022/09/14 14:09:01;;;;;;;5.35;1.67;;;17.50;99.90;;;-147.18;100.00;67318.16;5028840;28;20037;-79
2022/09/14 14:12:35;;;;;;;6.97;1.88;;;17.50;99.90;;;-147.18;100.00;67318.16;5022840;28;20375;-79
2022/09/14 14:16:14;;;;;;;4.40;1.80;;;17.50;99.90;;;-147.18;100.00;67318.16;5016857;28;20557;-79
2022/09/14 14:19:42;;;;;;;8.50;2.10;;;17.50;99.90;;;-147.18;100.00;67318.16;5019397;28;20030;-79